Time;durP1;ratioP1;P1;durP2;ratioP2;P2;SDS_P1;SDS_P2;PMS_P1;PMS_P2;Temp;Humidity;BMP_temperature;BMP_pressure;BME280_temperature;BME280_humidity;BME280_pressure;Samples;Min_cycle;Max_cycle;Signal;HPM_P1;HPM_P2
2022/09/07 04:49:30;;;;;;;;;3.00;3.00;;;;;24.13;50.48;101086.78;5052290;28;45412;-71
2022/09/07 04:51:55;;;;;;;;;2.00;2.00;;;;;24.20;51.13;101082.38;5034221;28;46519;-73
2022/09/07 04:54:20;;;;;;;;;1.67;1.67;;;;;24.39;51.03;101083.09;5037933;28;48459;-74
2022/09/07 04:56:45;;;;;;;;;3.00;3.00;;;;;24.60;51.08;101088.06;5032613;28;45396;-73
2022/09/07 04:59:11;;;;;;;;;1.00;1.00;;;;;24.84;50.46;101077.41;5033673;28;56707;-73
2022/09/07 05:01:36;;;;;;;;;2.00;2.00;;;;;25.10;50.38;101081.84;5038306;28;45410;-74
2022/09/07 05:04:03;;;;;;;;;2.67;2.67;;;;;25.35;50.13;101082.66;5033842;28;45806;-73
2022/09/07 05:06:29;;;;;;;;;2.00;2.00;;;;;25.58;50.35;101087.38;5031047;28;45320;-72
2022/09/07 05:08:55;;;;;;;;;1.33;1.33;;;;;25.83;50.34;101086.44;5040234;28;45493;-73
2022/09/07 05:11:22;;;;;;;;;2.00;2.00;;;;;26.06;49.87;101089.22;5040487;28;45471;-75
2022/09/07 05:13:47;;;;;;;;;1.00;1.00;;;;;26.24;49.56;101093.56;5048338;28;45471;-75
2022/09/07 05:16:14;;;;;;;;;2.33;2.00;;;;;26.48;48.05;101098.03;5037468;28;45568;-76
2022/09/07 05:18:39;;;;;;;;;2.00;2.00;;;;;26.67;47.47;101099.44;5036318;28;46290;-78
2022/09/07 05:21:14;;;;;;;;;2.00;2.00;;;;;26.84;46.49;101096.59;5039228;28;45449;-76
2022/09/07 05:23:40;;;;;;;;;3.00;1.00;;;;;26.96;45.65;101097.03;5042290;28;45412;-78
2022/09/07 05:26:06;;;;;;;;;2.67;2.00;;;;;27.07;45.35;101096.63;5038696;28;46774;-77
2022/09/07 05:28:32;;;;;;;;;2.67;2.33;;;;;27.15;45.24;101097.56;5039373;28;46615;-74
2022/09/07 05:31:09;;;;;;;;;2.00;2.00;;;;;27.22;45.11;101093.91;5040060;28;46239;-75
2022/09/07 05:33:35;;;;;;;;;3.00;3.00;;;;;27.25;44.55;101098.13;5037814;28;45693;-74
2022/09/07 05:36:01;;;;;;;;;4.67;3.00;;;;;27.27;44.10;101097.97;5038918;28;45843;-75
2022/09/07 05:38:27;;;;;;;;;3.00;3.00;;;;;27.30;44.63;101095.69;5038201;28;46168;-81
2022/09/07 05:40:53;;;;;;;;;2.67;2.00;;;;;27.32;44.10;101106.41;5039737;28;45748;-76
2022/09/07 05:43:18;;;;;;;;;1.00;1.00;;;;;27.35;44.41;101100.59;5038548;28;45539;-75
2022/09/07 05:45:44;;;;;;;;;3.00;3.00;;;;;27.38;43.79;101093.94;5049969;28;45438;-76
2022/09/07 05:48:09;;;;;;;;;3.00;3.00;;;;;27.42;43.64;101098.81;5051233;28;45495;-75
2022/09/07 05:50:35;;;;;;;;;4.00;2.00;;;;;27.42;44.77;101097.97;5058747;28;59327;-75
2022/09/07 05:53:00;;;;;;;;;2.33;2.33;;;;;27.43;45.09;101105.94;5065519;28;45370;-74
2022/09/07 05:55:26;;;;;;;;;1.33;1.33;;;;;27.43;44.45;101102.41;5063237;28;45523;-74
2022/09/07 05:57:52;;;;;;;;;1.67;1.67;;;;;27.44;43.35;101098.63;5063017;28;46161;-74
2022/09/07 06:00:20;;;;;;;;;2.33;2.33;;;;;27.47;43.23;101101.81;5048549;27;47188;-75
2022/09/07 06:02:45;;;;;;;;;3.33;3.33;;;;;27.50;43.64;101108.78;5056897;28;45648;-75
2022/09/07 06:05:11;;;;;;;;;2.67;2.67;;;;;27.51;43.06;101109.63;5046878;28;45370;-74
2022/09/07 06:07:36;;;;;;;;;4.67;2.00;;;;;27.49;43.41;101105.22;5052133;28;46232;-75
2022/09/07 06:10:02;;;;;;;;;0.67;0.33;;;;;27.49;43.22;101104.38;5044184;28;45579;-75
2022/09/07 06:12:27;;;;;;;;;3.00;3.00;;;;;27.51;43.59;101117.81;5054145;28;45513;-75
2022/09/07 06:14:52;;;;;;;;;4.67;3.33;;;;;27.53;42.99;101118.47;5051861;28;45470;-75
2022/09/07 06:17:18;;;;;;;;;1.00;1.00;;;;;27.54;43.17;101112.81;5046487;28;51141;-75
2022/09/07 06:19:43;;;;;;;;;3.00;3.00;;;;;27.58;43.76;101119.59;5033710;28;45451;-77
2022/09/07 06:22:09;;;;;;;;;2.00;2.00;;;;;27.61;43.48;101113.81;5042043;28;45424;-76
2022/09/07 06:24:34;;;;;;;;;3.00;2.00;;;;;27.65;43.87;101117.00;5044871;28;45379;-77
2022/09/07 06:26:59;;;;;;;;;2.00;2.00;;;;;27.70;43.87;101119.16;5035578;28;49350;-78
2022/09/07 06:29:24;;;;;;;;;3.00;3.00;;;;;27.71;43.87;101113.53;5048794;28;45510;-77
2022/09/07 06:31:50;;;;;;;;;1.33;1.33;;;;;27.72;43.28;101112.47;5048557;28;50898;-76
2022/09/07 06:34:15;;;;;;;;;4.00;3.33;;;;;27.75;43.23;101114.84;5051645;28;45554;-77
2022/09/07 06:36:40;;;;;;;;;6.00;4.67;;;;;27.78;43.67;101113.63;5046471;28;46299;-74
2022/09/07 06:39:06;;;;;;;;;6.67;4.67;;;;;27.84;43.23;101125.66;5051311;28;45827;-78
2022/09/07 06:41:31;;;;;;;;;2.00;2.00;;;;;27.87;43.62;101128.00;5036532;28;45507;-76
2022/09/07 06:43:56;;;;;;;;;2.33;2.33;;;;;27.91;43.31;101129.31;5041551;28;45736;-75
2022/09/07 06:46:22;;;;;;;;;4.00;4.00;;;;;27.94;43.34;101128.94;5051205;28;46341;-75
2022/09/07 06:48:55;;;;;;;;;2.33;2.33;;;;;27.95;43.50;101130.63;5042892;28;45741;-75
2022/09/07 06:51:25;;;;;;;;;2.67;2.67;;;;;28.02;42.88;101125.25;5053860;28;46488;-76
2022/09/07 06:53:51;;;;;;;;;5.67;2.00;;;;;28.08;42.75;101118.22;5056596;28;45454;-75
2022/09/07 06:56:18;;;;;;;;;2.00;2.00;;;;;28.13;43.32;101116.59;5056098;28;46687;-75
2022/09/07 06:58:43;;;;;;;;;2.00;2.00;;;;;28.18;42.44;101113.31;5042635;28;45415;-75
2022/09/07 07:01:17;;;;;;;;;1.33;1.33;;;;;28.21;42.92;101109.34;5037201;28;45400;-77
2022/09/07 07:03:43;;;;;;;;;3.00;3.00;;;;;28.22;43.07;101120.06;5055750;28;45471;-77
2022/09/07 07:06:11;;;;;;;;;2.00;2.00;;;;;28.23;42.90;101110.84;5062966;28;46506;-78
2022/09/07 07:08:37;;;;;;;;;1.00;1.00;;;;;28.23;42.76;101115.44;5063061;28;45510;-77
2022/09/07 07:11:06;;;;;;;;;5.00;4.00;;;;;28.24;42.19;101111.69;5042051;28;45792;-77
2022/09/07 07:13:36;;;;;;;;;2.67;2.67;;;;;28.24;42.95;101114.44;5054992;28;45448;-77
2022/09/07 07:16:12;;;;;;;;;2.33;2.33;;;;;28.25;42.47;101116.13;5047710;28;46287;-77
2022/09/07 07:18:38;;;;;;;;;1.33;1.33;;;;;28.26;42.52;101115.97;5029189;28;46041;-77
2022/09/07 07:21:06;;;;;;;;;3.00;3.00;;;;;28.30;42.37;101113.69;5055828;28;45460;-76
2022/09/07 07:23:33;;;;;;;;;1.67;1.67;;;;;28.29;42.84;101120.19;5047263;28;45610;-75
2022/09/07 07:26:03;;;;;;;;;2.00;2.00;;;;;28.32;42.74;101118.94;5055836;28;45427;-75
2022/09/07 07:28:28;;;;;;;;;3.33;1.67;;;;;28.28;42.74;101113.88;5055814;28;45524;-75
2022/09/07 07:30:58;;;;;;;;;3.00;2.00;;;;;28.26;42.30;101106.91;5056279;28;45392;-76
2022/09/07 07:33:27;;;;;;;;;2.33;2.33;;;;;28.26;42.47;101102.31;5053472;28;45402;-77
2022/09/07 07:35:53;;;;;;;;;2.67;2.00;;;;;28.31;42.39;101103.63;5051092;28;46232;-77
2022/09/07 07:38:18;;;;;;;;;2.00;2.00;;;;;28.36;42.28;101101.97;5055096;28;52371;-77
2022/09/07 07:40:44;;;;;;;;;2.67;2.67;;;;;28.41;42.15;101099.53;5056207;28;46244;-77
2022/09/07 07:43:10;;;;;;;;;3.67;2.00;;;;;28.46;42.53;101107.16;5055836;28;45357;-79
2022/09/07 07:45:35;;;;;;;;;5.33;4.00;;;;;28.51;42.02;101106.56;5055494;28;45825;-79
2022/09/07 07:48:01;;;;;;;;;6.00;6.00;;;;;28.49;42.18;101095.81;5055990;28;45413;-79
2022/09/07 07:50:26;;;;;;;;;3.00;3.00;;;;;28.50;42.68;101097.53;5055512;28;45412;-76
2022/09/07 07:52:51;;;;;;;;;3.00;3.00;;;;;28.50;42.26;101094.81;5050473;28;45441;-77
2022/09/07 07:55:17;;;;;;;;;4.67;4.67;;;;;28.56;42.08;101092.34;5055335;28;45581;-77
2022/09/07 07:57:42;;;;;;;;;4.00;2.33;;;;;28.56;41.89;101093.16;5055743;28;47410;-78
2022/09/07 08:00:08;;;;;;;;;4.00;4.00;;;;;28.51;41.99;101080.09;5041348;28;45488;-75
2022/09/07 08:02:33;;;;;;;;;2.00;1.67;;;;;28.56;42.20;101090.44;5055318;28;45508;-77
2022/09/07 08:04:58;;;;;;;;;3.00;3.00;;;;;28.58;41.85;101091.09;5055491;28;47074;-77
2022/09/07 08:07:24;;;;;;;;;2.00;2.00;;;;;28.54;42.21;101090.63;5054946;28;45471;-75
2022/09/07 08:09:49;;;;;;;;;2.67;2.67;;;;;28.43;42.27;101080.22;5055835;28;45386;-78
2022/09/07 08:12:17;;;;;;;;;3.00;2.00;;;;;28.44;41.83;101094.72;5054787;28;45391;-75
2022/09/07 08:14:43;;;;;;;;;5.00;2.00;;;;;28.38;42.13;101090.88;5055963;28;46269;-75
2022/09/07 08:17:10;;;;;;;;;4.67;4.67;;;;;28.34;42.22;101090.44;5054774;28;45460;-75
2022/09/07 08:19:36;;;;;;;;;2.00;2.00;;;;;28.27;42.86;101082.16;5056503;28;45456;-74
2022/09/07 08:22:02;;;;;;;;;3.67;3.00;;;;;28.21;42.70;101073.88;5040634;28;45485;-76
2022/09/07 08:24:29;;;;;;;;;2.33;2.33;;;;;28.16;42.42;101079.91;5054947;28;46394;-74
2022/09/07 08:26:54;;;;;;;;;4.00;2.67;;;;;28.12;42.31;101079.44;5054393;28;45379;-75
2022/09/07 08:29:19;;;;;;;;;2.67;2.67;;;;;28.09;42.81;101090.75;5054894;28;45341;-75
2022/09/07 08:31:45;;;;;;;;;2.00;2.00;;;;;28.08;43.12;101088.19;5063786;28;45455;-74
2022/09/07 08:34:10;;;;;;;;;3.00;2.00;;;;;28.05;42.84;101099.47;5059768;28;46109;-75
2022/09/07 08:36:35;;;;;;;;;2.00;2.00;;;;;27.98;43.06;101089.34;5054744;28;45506;-74
2022/09/07 08:39:01;;;;;;;;;5.00;4.00;;;;;27.98;42.96;101096.66;5044269;28;45707;-75
2022/09/07 08:41:47;;;;;;;;;3.33;3.33;;;;;27.98;43.16;101097.53;5052579;28;45454;-73
2022/09/07 08:44:26;;;;;;;;;3.00;3.00;;;;;28.01;43.29;101109.94;5054749;28;46190;-74
2022/09/07 08:47:05;;;;;;;;;2.00;2.00;;;;;28.07;43.61;101102.88;5037151;28;45758;-75
2022/09/07 08:49:37;;;;;;;;;3.00;3.00;;;;;28.11;43.43;101118.66;5053695;28;45392;-74
2022/09/07 08:52:11;;;;;;;;;4.67;4.00;;;;;28.12;43.31;101109.44;5055022;28;45698;-75
2022/09/07 08:54:41;;;;;;;;;2.00;2.00;;;;;28.13;43.42;101110.31;5042146;28;45495;-76
2022/09/07 08:57:07;;;;;;;;;1.67;1.67;;;;;28.18;43.31;101101.53;5053825;28;45504;-75
2022/09/07 08:59:45;;;;;;;;;6.00;2.00;;;;;28.19;43.41;101095.06;5048184;28;45412;-75
2022/09/07 09:02:13;;;;;;;;;2.00;1.67;;;;;28.20;43.40;101078.47;5054696;28;45383;-74
2022/09/07 09:04:41;;;;;;;;;3.33;3.00;;;;;28.25;43.07;101076.03;5054623;28;46183;-75
2022/09/07 09:07:20;;;;;;;;;2.67;2.67;;;;;28.30;43.06;101080.06;5054208;28;45382;-74
2022/09/07 09:10:06;;;;;;;;;1.00;1.00;;;;;28.35;43.34;101067.53;5046874;28;45425;-75
2022/09/07 09:13:01;;;;;;;;;1.33;1.33;;;;;28.36;42.67;101071.13;5052105;28;45329;-75
2022/09/07 09:15:51;;;;;;;;;1.00;1.00;;;;;28.34;42.80;101065.00;5054033;28;46129;-75
2022/09/07 09:18:34;;;;;;;;;2.00;2.00;;;;;28.39;43.40;101059.81;5043996;28;45505;-75
2022/09/07 09:20:59;;;;;;;;;4.33;2.67;;;;;28.44;42.78;101060.06;5054198;28;45750;-75
2022/09/07 09:23:38;;;;;;;;;4.00;3.33;;;;;28.51;42.64;101058.25;5054827;28;45405;-75
2022/09/07 09:26:21;;;;;;;;;2.33;1.67;;;;;28.53;43.00;101066.25;5050848;28;46472;-74
2022/09/07 09:28:48;;;;;;;;;6.33;3.00;;;;;28.53;42.57;101064.34;5054584;28;45412;-76
2022/09/07 09:31:22;;;;;;;;;3.00;1.00;;;;;28.54;42.69;101060.59;5054048;28;45483;-76
2022/09/07 09:34:08;;;;;;;;;2.00;2.00;;;;;28.54;42.79;101076.97;5053560;28;45329;-76
2022/09/07 09:36:40;;;;;;;;;2.00;2.00;;;;;28.59;42.30;101070.94;5047208;28;46402;-75
2022/09/07 09:39:23;;;;;;;;;5.33;4.00;;;;;28.64;42.23;101070.34;5056393;28;45502;-75
2022/09/07 09:41:49;;;;;;;;;2.00;2.00;;;;;28.62;42.82;101065.09;5056729;28;45482;-74
2022/09/07 09:44:16;;;;;;;;;6.33;4.00;;;;;28.62;42.64;101070.56;5058408;28;45333;-71
2022/09/07 09:46:48;;;;;;;;;3.33;3.33;;;;;28.69;42.28;101069.75;5057549;28;46249;-73
2022/09/07 09:49:22;;;;;;;;;1.00;1.00;;;;;28.69;42.31;101058.84;5056932;28;45413;-75
2022/09/07 09:51:55;;;;;;;;;2.33;2.33;;;;;28.65;42.56;101061.13;5057418;28;45490;-77
2022/09/07 09:54:26;;;;;;;;;2.67;2.67;;;;;28.65;42.65;101059.22;5057637;28;45342;-77
2022/09/07 09:56:52;;;;;;;;;2.00;2.00;;;;;28.62;42.59;101051.44;5057975;28;45356;-76
2022/09/07 09:59:17;;;;;;;;;3.00;3.00;;;;;28.61;42.44;101052.47;5049687;28;45740;-76
2022/09/07 10:01:44;;;;;;;;;3.00;3.00;;;;;28.64;41.90;101052.06;5050925;28;45359;-75
2022/09/07 10:04:22;;;;;;;;;3.67;2.33;;;;;28.70;41.83;101047.72;5057537;28;45522;-74
2022/09/07 10:06:50;;;;;;;;;3.00;2.33;;;;;28.74;41.77;101042.72;5057751;28;46131;-73
2022/09/07 10:09:19;;;;;;;;;2.00;2.00;;;;;28.76;42.60;101035.16;5047783;28;45372;-72
2022/09/07 10:11:46;;;;;;;;;2.67;2.00;;;;;28.72;42.77;101042.06;5056793;28;45379;-72
2022/09/07 10:14:20;;;;;;;;;2.67;1.00;;;;;28.65;42.85;101042.84;5057837;27;45491;-74
2022/09/07 10:16:45;;;;;;;;;2.00;2.00;;;;;28.59;43.17;101038.16;5056769;28;46524;-75
2022/09/07 10:19:25;;;;;;;;;1.00;1.00;;;;;28.52;43.69;101043.56;5056896;28;45494;-75
2022/09/07 10:21:59;;;;;;;;;1.33;1.00;;;;;28.47;43.87;101034.25;5056938;28;45345;-74
2022/09/07 10:24:26;;;;;;;;;1.33;1.33;;;;;28.45;44.18;101034.47;5042856;28;45498;-74
2022/09/07 10:26:52;;;;;;;;;0.67;0.67;;;;;28.43;44.28;101033.81;5045282;28;46068;-75
2022/09/07 10:29:29;;;;;;;;;1.33;1.33;;;;;28.40;43.72;101040.50;5055867;28;45431;-74
2022/09/07 10:32:24;;;;;;;;;3.33;1.00;;;;;28.39;44.15;101035.25;5056894;28;45462;-74
2022/09/07 10:35:05;;;;;;;;;1.33;1.33;;;;;28.36;44.44;101036.47;5052002;28;45569;-74
2022/09/07 10:37:38;;;;;;;;;2.33;1.00;;;;;28.35;43.92;101034.78;5054156;28;46269;-75
2022/09/07 10:40:26;;;;;;;;;5.33;3.00;;;;;28.37;43.58;101031.88;5055907;28;45437;-74
2022/09/07 10:43:00;;;;;;;;;3.00;2.00;;;;;28.35;43.64;101023.03;5045093;28;45518;-74
2022/09/07 10:45:32;;;;;;;;;2.00;2.00;;;;;28.37;43.57;101031.88;5056490;28;45400;-74
2022/09/07 10:48:27;;;;;;;;;2.00;2.00;;;;;28.35;44.34;101031.22;5056293;28;46364;-74
2022/09/07 10:50:57;;;;;;;;;2.00;2.00;;;;;28.34;44.00;101037.72;5056602;28;45423;-75
2022/09/07 10:53:29;;;;;;;;;4.67;1.67;;;;;28.33;44.22;101025.97;5053330;28;45303;-74
2022/09/07 10:56:06;;;;;;;;;4.00;2.00;;;;;28.32;44.55;101017.97;5045709;28;45510;-75
2022/09/07 10:58:56;;;;;;;;;2.00;2.00;;;;;28.33;44.07;101017.78;5054474;28;46040;-75
2022/09/07 11:01:26;;;;;;;;;4.00;3.00;;;;;28.32;44.19;101012.50;5040363;28;45439;-74
2022/09/07 11:04:13;;;;;;;;;1.00;1.00;;;;;28.32;43.67;101013.34;5042564;28;45506;-74
2022/09/07 11:06:41;;;;;;;;;2.00;2.00;;;;;28.39;43.77;101014.25;5039871;28;45510;-74
2022/09/07 11:09:40;;;;;;;;;1.00;1.00;;;;;28.44;43.33;101008.19;5041663;28;47302;-74
2022/09/07 11:12:12;;;;;;;;;2.00;1.00;;;;;28.45;43.29;101004.44;5038591;28;45438;-74
2022/09/07 11:14:47;;;;;;;;;3.67;2.00;;;;;28.43;43.40;101009.25;5041943;28;45441;-74
2022/09/07 11:17:26;;;;;;;;;2.67;1.00;;;;;28.41;43.60;101016.81;5044528;28;45761;-75
2022/09/07 11:20:07;;;;;;;;;2.00;2.00;;;;;28.38;43.50;101015.31;5047290;28;46380;-74
2022/09/07 11:22:44;;;;;;;;;2.00;2.00;;;;;28.39;42.95;101010.66;5052331;28;45924;-74
2022/09/07 11:25:32;;;;;;;;;2.00;2.00;;;;;28.40;43.59;101007.75;5047143;28;45407;-74
2022/09/07 11:28:04;;;;;;;;;1.00;1.00;;;;;28.38;43.21;101009.00;5046643;28;45412;-74
2022/09/07 11:30:33;;;;;;;;;2.00;2.00;;;;;28.38;43.25;101015.31;5040836;28;45440;-75
2022/09/07 11:33:22;;;;;;;;;2.00;2.00;;;;;28.36;43.06;101001.00;5035283;28;45461;-75
2022/09/07 11:36:03;;;;;;;;;2.00;2.00;;;;;28.37;42.81;100999.13;5039104;28;45780;-75
2022/09/07 11:38:59;;;;;;;;;3.00;3.00;;;;;28.39;43.30;100997.03;5035657;28;45550;-75
2022/09/07 11:41:55;;;;;;;;;1.00;1.00;;;;;28.37;42.88;100993.66;5031711;28;45600;-75
2022/09/07 11:44:28;;;;;;;;;2.00;2.00;;;;;28.38;42.99;100989.88;5035351;28;45493;-75
2022/09/07 11:47:01;;;;;;;;;2.00;2.00;;;;;28.38;43.61;100982.56;5037235;28;45765;-75
2022/09/07 11:49:26;;;;;;;;;1.00;1.00;;;;;28.36;42.82;100987.34;5037709;28;45561;-75
2022/09/07 11:52:16;;;;;;;;;2.00;2.00;;;;;28.39;43.39;100986.09;5039367;28;46081;-79
2022/09/07 11:54:52;;;;;;;;;1.67;1.00;;;;;28.37;43.37;100980.00;5042864;28;45466;-82
2022/09/07 11:57:32;;;;;;;;;1.67;1.67;;;;;28.39;43.50;100986.97;5040582;28;45522;-80
2022/09/07 12:00:21;;;;;;;;;1.67;1.67;;;;;28.38;42.74;100982.56;5048884;28;45586;-78
2022/09/07 12:03:17;;;;;;;;;1.67;1.67;;;;;28.39;43.45;100977.91;5042291;28;47480;-73
2022/09/07 12:05:43;;;;;;;;;1.00;1.00;;;;;28.37;43.34;100972.66;5026979;28;45410;-74
2022/09/07 12:09:04;;;;;;;;;2.00;2.00;;;;;28.39;43.08;100978.78;5040942;28;45596;-74
2022/09/07 12:11:35;;;;;;;;;2.00;2.00;;;;;28.39;42.86;100975.19;4966355;28;45744;-76
2022/09/07 12:14:17;;;;;;;;;4.00;3.00;;;;;28.41;42.66;100967.66;4963480;28;46321;-74
2022/09/07 12:17:00;;;;;;;;;3.00;3.00;;;;;28.50;42.82;100966.50;4969597;28;46990;-74
2022/09/07 12:19:27;;;;;;;;;4.00;2.33;;;;;28.49;42.76;100967.50;4968285;28;45612;-74
2022/09/07 12:21:52;;;;;;;;;3.00;3.00;;;;;28.52;43.09;100966.25;4966095;28;45676;-74
2022/09/07 12:24:38;;;;;;;;;2.00;2.00;;;;;28.55;42.62;100974.06;4968727;28;46124;-76
2022/09/07 12:27:18;;;;;;;;;1.67;1.67;;;;;28.58;42.88;100965.50;4967018;28;45831;-74
2022/09/07 12:29:43;;;;;;;;;2.00;2.00;;;;;28.61;42.83;100967.00;4945711;28;47134;-74
2022/09/07 12:32:09;;;;;;;;;2.00;2.00;;;;;28.63;42.75;100963.00;4974217;28;45501;-75
2022/09/07 12:34:34;;;;;;;;;2.00;2.00;;;;;28.64;43.06;100961.09;4967704;28;46118;-75
2022/09/07 12:37:25;;;;;;;;;2.67;1.33;;;;;28.66;42.64;100959.03;4966274;28;45901;-77
2022/09/07 12:40:29;;;;;;;;;1.33;1.33;;;;;28.67;43.10;100960.72;4967645;28;45511;-78
2022/09/07 12:43:12;;;;;;;;;1.00;1.00;;;;;28.64;42.82;100961.09;4965975;28;45452;-77
2022/09/07 12:45:37;;;;;;;;;2.33;2.33;;;;;28.60;43.07;100955.22;4976036;28;45526;-77
2022/09/07 12:48:35;;;;;;;;;1.67;0.00;;;;;28.58;43.55;100962.75;5046965;28;45478;-79
2022/09/07 12:51:22;;;;;;;;;3.67;1.00;;;;;28.56;43.12;100961.28;5043733;28;45696;-78
2022/09/07 12:54:06;;;;;;;;;1.67;1.67;;;;;28.56;43.70;100964.84;5042582;28;45361;-78
2022/09/07 12:56:58;;;;;;;;;2.33;2.33;;;;;28.53;43.37;100963.34;5046293;28;47213;-77
2022/09/07 13:00:01;;;;;;;;;3.00;3.00;;;;;28.51;42.94;100962.72;5035283;28;45419;-78
2022/09/07 13:03:06;;;;;;;;;2.00;2.00;;;;;28.49;43.42;100970.22;5046676;28;45398;-78
2022/09/07 13:05:57;;;;;;;;;2.00;2.00;;;;;28.49;43.15;100963.94;5054866;28;45399;-78
2022/09/07 13:08:47;;;;;;;;;2.00;2.00;;;;;28.46;43.17;100962.47;5043773;28;46192;-79
2022/09/07 13:11:37;;;;;;;;;2.00;2.00;;;;;28.44;43.51;100966.44;5046018;28;45463;-78
2022/09/07 13:14:18;;;;;;;;;1.67;1.67;;;;;28.39;43.36;100969.72;5049246;28;45444;-77
2022/09/07 13:16:45;;;;;;;;;1.00;1.00;;;;;28.37;43.53;100971.81;5058301;28;45454;-77
2022/09/07 13:19:32;;;;;;;;;1.33;1.33;;;;;28.33;43.24;100965.91;5047075;28;45517;-76
2022/09/07 13:21:58;;;;;;;;;1.33;1.33;;;;;28.34;43.71;100964.00;5042125;28;45449;-77
2022/09/07 13:24:33;;;;;;;;;3.67;2.00;;;;;28.38;42.78;100957.97;5047195;28;45426;-73
2022/09/07 13:27:04;;;;;;;;;5.67;4.00;;;;;28.41;43.41;100962.22;5046845;28;45341;-72
2022/09/07 13:29:45;;;;;;;;;3.00;3.00;;;;;28.46;43.24;100951.53;5054209;28;47180;-74
2022/09/07 13:32:30;;;;;;;;;3.33;3.33;;;;;28.51;43.90;100943.59;5056625;28;45415;-74
2022/09/07 13:35:03;;;;;;;;;3.33;2.00;;;;;28.58;43.66;100940.06;5045173;28;45535;-74
2022/09/07 13:37:34;;;;;;;;;2.00;2.00;;;;;28.63;43.76;100940.31;5054453;28;45439;-73
2022/09/07 14:22:58;;;;;;;;;4.67;3.00;;;;;26.24;46.90;100878.66;5079138;27;45433;-75
2022/09/07 14:25:24;;;;;;;;;3.33;2.67;;;;;26.24;47.19;100890.34;5064815;27;45518;-79
2022/09/07 14:27:50;;;;;;;;;1.33;1.00;;;;;26.31;47.29;100876.91;5070574;27;45454;-80
2022/09/07 14:30:19;;;;;;;;;1.00;1.00;;;;;26.47;47.46;100888.66;5064054;27;45489;-79
2022/09/07 14:32:50;;;;;;;;;2.00;2.00;;;;;26.63;47.16;100890.38;5064734;28;45455;-78
2022/09/07 14:35:19;;;;;;;;;2.00;2.00;;;;;26.80;46.59;100882.88;5064453;27;45423;-78
2022/09/07 14:37:46;;;;;;;;;2.00;1.33;;;;;26.97;46.31;100889.00;5067671;27;45428;-78
2022/09/07 14:40:19;;;;;;;;;2.67;2.67;;;;;27.14;46.79;100881.47;5071700;27;45403;-78
2022/09/07 14:42:46;;;;;;;;;2.00;2.00;;;;;27.30;46.45;100890.50;5064474;28;45419;-78
2022/09/07 14:45:15;;;;;;;;;3.00;1.33;;;;;27.45;46.24;100893.16;5073660;27;45556;-78
2022/09/07 14:47:41;;;;;;;;;2.67;2.00;;;;;27.58;45.47;100893.31;5064866;27;45573;-78
2022/09/07 14:50:17;;;;;;;;;1.00;1.00;;;;;27.72;45.95;100896.25;5068785;28;45797;-78
2022/09/07 14:52:45;;;;;;;;;3.33;1.67;;;;;27.81;45.33;100892.34;5067595;27;46153;-80
2022/09/07 14:55:31;;;;;;;;;2.33;2.33;;;;;27.94;45.17;100882.59;5086443;27;45517;-77
2022/09/07 14:58:08;;;;;;;;;2.33;2.00;;;;;28.02;44.58;100885.19;5069847;27;45403;-77
2022/09/07 15:00:34;;;;;;;;;2.00;2.00;;;;;28.08;45.17;100878.13;5069394;27;45474;-79
2022/09/07 15:02:59;;;;;;;;;3.00;2.00;;;;;28.15;44.92;100879.00;5071797;28;45306;-78
2022/09/07 15:05:28;;;;;;;;;2.00;2.00;;;;;28.20;44.17;100876.53;5069819;28;45668;-78
2022/09/07 15:08:01;;;;;;;;;2.00;1.00;;;;;28.26;44.13;100880.41;5071766;27;45537;-78
2022/09/07 15:10:40;;;;;;;;;2.33;2.00;;;;;28.33;44.39;100875.84;5067735;27;45848;-79
2022/09/07 15:13:22;;;;;;;;;4.00;2.00;;;;;28.38;44.46;100867.06;5059646;27;46620;-78
2022/09/07 15:15:57;;;;;;;;;1.67;1.33;;;;;28.41;43.68;100867.50;5070364;28;45391;-81
2022/09/07 15:18:53;;;;;;;;;2.00;2.00;;;;;28.47;43.98;100862.28;5071222;28;45414;-80
2022/09/07 15:21:30;;;;;;;;;2.00;2.00;;;;;28.53;44.04;100850.59;5058744;28;45822;-83
2022/09/07 15:23:57;;;;;;;;;2.00;2.00;;;;;28.56;44.07;100852.06;5070458;27;46387;-79
2022/09/07 15:26:28;;;;;;;;;1.00;1.00;;;;;28.58;43.67;100856.28;5080626;27;45495;-79
2022/09/07 15:28:53;;;;;;;;;2.00;2.00;;;;;28.62;43.57;100851.25;5069923;28;45522;-76
2022/09/07 15:31:20;;;;;;;;;3.33;2.00;;;;;28.64;44.09;100851.88;5067538;28;45542;-75
2022/09/07 15:33:46;;;;;;;;;3.00;2.00;;;;;28.61;43.54;100841.38;5050165;27;45522;-75
2022/09/07 15:36:14;;;;;;;;;1.00;1.00;;;;;28.62;43.74;100835.72;5053014;28;45457;-80
2022/09/07 15:38:39;;;;;;;;;2.00;2.00;;;;;28.67;43.38;100835.97;5057417;28;45523;-81
2022/09/07 15:41:05;;;;;;;;;2.00;2.00;;;;;28.70;43.38;100826.53;5046968;28;45431;-79
2022/09/07 15:43:30;;;;;;;;;1.00;1.00;;;;;28.71;43.31;100816.44;5055182;28;45478;-79
2022/09/07 15:45:56;;;;;;;;;1.00;1.00;;;;;28.73;43.88;100819.81;5053925;28;54809;-78
2022/09/07 15:48:25;;;;;;;;;1.00;1.00;;;;;28.73;43.40;100819.81;5056273;28;45465;-79
2022/09/07 15:51:00;;;;;;;;;2.00;2.00;;;;;28.72;43.93;100818.97;5046027;28;45542;-80
2022/09/07 15:53:25;;;;;;;;;1.33;1.33;;;;;28.73;43.25;100809.72;5057146;28;46257;-81
2022/09/07 15:55:53;;;;;;;;;1.00;1.00;;;;;28.73;43.41;100801.53;5048534;28;45529;-79
2022/09/07 15:58:19;;;;;;;;;1.33;1.33;;;;;28.76;43.57;100811.19;5056691;28;45542;-77
2022/09/07 16:00:44;;;;;;;;;1.00;1.00;;;;;28.75;43.42;100812.25;5049727;28;45431;-77
2022/09/07 16:03:10;;;;;;;;;4.33;2.00;;;;;28.75;43.61;100806.78;5052673;28;46090;-75
2022/09/07 16:05:39;;;;;;;;;2.67;2.00;;;;;28.80;43.67;100813.34;5055501;28;45407;-76
2022/09/07 16:08:04;;;;;;;;;2.00;2.00;;;;;28.79;43.14;100794.41;5057467;27;45403;-75
2022/09/07 16:10:30;;;;;;;;;2.00;2.00;;;;;28.87;43.51;100786.06;5055927;28;45457;-75
2022/09/07 16:12:55;;;;;;;;;0.00;0.00;;;;;28.88;43.34;100771.38;5056836;28;46564;-75
2022/09/07 16:15:20;;;;;;;;;2.33;2.33;;;;;28.91;43.24;100767.41;5056285;28;45453;-75
2022/09/07 16:17:48;;;;;;;;;1.67;1.67;;;;;28.94;42.91;100769.72;5056558;28;45415;-75
2022/09/07 16:20:14;;;;;;;;;1.67;1.67;;;;;28.92;43.05;100777.28;5055611;28;45451;-76
2022/09/07 16:22:39;;;;;;;;;3.33;2.33;;;;;28.93;42.57;100779.81;5055691;28;46182;-76
2022/09/07 16:25:05;;;;;;;;;2.00;2.00;;;;;28.97;42.64;100793.06;5055982;28;45911;-75
2022/09/07 16:27:31;;;;;;;;;3.67;2.00;;;;;28.97;42.42;100791.16;5047018;28;47067;-75
2022/09/07 16:29:56;;;;;;;;;3.00;1.33;;;;;28.90;42.44;100785.66;5055117;28;45565;-73
2022/09/07 16:32:21;;;;;;;;;1.67;1.67;;;;;28.86;42.90;100786.25;5051569;28;50287;-74
2022/09/07 16:34:47;;;;;;;;;3.00;1.33;;;;;28.77;42.22;100774.69;5047966;28;45425;-75
2022/09/07 16:37:13;;;;;;;;;1.00;1.00;;;;;28.66;42.60;100776.09;5054127;28;45390;-74
2022/09/07 16:39:38;;;;;;;;;2.00;2.00;;;;;28.54;43.31;100778.56;5055253;28;45428;-74
2022/09/07 16:42:04;;;;;;;;;1.00;1.00;;;;;28.45;42.78;100782.47;5053322;28;46886;-74
2022/09/07 16:44:29;;;;;;;;;1.67;1.67;;;;;28.36;43.07;100779.91;5054131;28;45493;-74
2022/09/07 16:46:55;;;;;;;;;3.00;2.67;;;;;28.29;43.40;100787.22;5054155;28;45559;-75
2022/09/07 16:49:20;;;;;;;;;1.67;1.00;;;;;28.22;43.51;100797.22;5051701;28;45434;-76
2022/09/07 16:51:45;;;;;;;;;1.00;1.00;;;;;28.18;43.12;100780.41;5054965;28;47187;-75
2022/09/07 16:54:12;;;;;;;;;1.00;1.00;;;;;28.14;43.85;100777.22;5054034;28;45480;-75
2022/09/07 16:56:38;;;;;;;;;1.00;1.00;;;;;28.11;43.59;100785.81;5044413;28;45453;-75
2022/09/07 16:59:05;;;;;;;;;1.00;1.00;;;;;28.10;43.82;100803.22;5054394;28;45744;-75
2022/09/07 17:01:33;;;;;;;;;1.00;1.00;;;;;28.09;43.71;100804.28;5071810;28;47966;-75
2022/09/07 17:04:00;;;;;;;;;2.00;0.67;;;;;28.06;43.21;100795.63;5048416;28;45651;-74
2022/09/07 17:06:28;;;;;;;;;1.00;1.00;;;;;28.04;43.47;100798.56;5053353;28;45447;-74
2022/09/07 17:08:54;;;;;;;;;1.00;1.00;;;;;28.04;42.85;100797.72;5056259;28;45415;-75
2022/09/07 17:11:22;;;;;;;;;1.00;0.33;;;;;28.05;42.98;100808.44;5054663;28;46014;-74
2022/09/07 17:13:48;;;;;;;;;0.67;0.67;;;;;28.04;42.69;100795.84;5050905;28;45483;-75
2022/09/07 17:16:19;;;;;;;;;2.00;2.00;;;;;28.05;43.19;100794.78;5051025;28;45870;-75